createdAt,value
2022-09-10T00:01:29.807Z,100923.59
2022-09-10T00:03:59.102Z,100928.28
2022-09-10T00:06:28.440Z,100927.41
2022-09-10T00:08:57.758Z,100926.00
2022-09-10T00:11:29.068Z,100927.53
2022-09-10T00:13:57.343Z,100917.53
2022-09-10T00:16:25.781Z,100924.69
2022-09-10T00:18:53.481Z,100920.22
2022-09-10T00:21:22.207Z,100927.69
2022-09-10T00:23:50.484Z,100930.63
2022-09-10T00:26:21.843Z,100936.19
2022-09-10T00:28:50.685Z,100935.16
2022-09-10T00:31:22.759Z,100940.97
2022-09-10T00:33:54.763Z,100931.78
2022-09-10T00:36:26.563Z,100929.59
2022-09-10T00:38:57.763Z,100932.97
2022-09-10T00:41:26.282Z,100932.16
2022-09-10T00:43:57.812Z,100926.09
2022-09-10T00:46:43.437Z,100926.19
2022-09-10T00:49:17.695Z,100925.16
2022-09-10T00:51:48.298Z,100927.78
2022-09-10T00:54:18.490Z,100926.00
2022-09-10T00:56:47.010Z,100923.56
2022-09-10T00:59:18.810Z,100926.63
2022-09-10T01:01:47.745Z,100918.72
2022-09-10T01:04:15.677Z,100930.72
2022-09-10T01:06:46.440Z,100922.91
2022-09-10T01:09:14.991Z,100921.41
2022-09-10T01:12:12.278Z,100926.75
2022-09-10T01:15:08.107Z,100922.00
2022-09-10T01:17:58.576Z,100930.69
2022-09-10T01:20:56.565Z,100935.09
2022-09-10T01:24:13.965Z,100930.41
2022-09-10T01:27:35.294Z,100934.22
2022-09-10T01:30:12.966Z,100929.03
2022-09-10T01:32:57.230Z,100928.47
2022-09-10T01:35:37.513Z,100933.84
2022-09-10T01:38:17.172Z,100939.66
2022-09-10T01:40:46.415Z,100931.53
2022-09-10T01:43:15.141Z,100944.69
2022-09-10T01:46:01.517Z,100943.31
2022-09-10T01:49:00.892Z,100935.75
2022-09-10T01:51:47.498Z,100939.00
2022-09-10T01:54:37.477Z,100936.22
2022-09-10T01:57:24.060Z,100932.97
2022-09-10T02:00:05.851Z,100941.50
2022-09-10T02:02:41.862Z,100937.56
2022-09-10T02:05:12.070Z,100937.94
2022-09-10T02:07:39.591Z,100933.50
2022-09-10T02:10:09.849Z,100937.72
2022-09-10T02:12:37.511Z,100940.88
2022-09-10T02:15:10.513Z,100937.38
2022-09-10T02:17:40.188Z,100943.31
2022-09-10T02:20:14.382Z,100939.94
2022-09-10T02:22:49.986Z,100934.31
2022-09-10T02:25:17.456Z,100930.94
2022-09-10T02:27:45.389Z,100933.41
2022-09-10T02:30:14.427Z,100935.03
2022-09-10T02:32:42.904Z,100935.84
2022-09-10T02:35:10.281Z,100942.47
2022-09-10T02:37:37.666Z,100942.72
2022-09-10T02:40:06.417Z,100941.44
2022-09-10T02:42:55.555Z,100939.53
2022-09-10T02:45:24.203Z,100942.22
2022-09-10T02:47:51.567Z,100944.88
2022-09-10T02:50:19.217Z,100944.88
2022-09-10T02:52:46.921Z,100944.69
2022-09-10T02:55:14.613Z,100936.78
2022-09-10T02:57:42.271Z,100943.84
2022-09-10T03:00:11.258Z,100941.25
2022-09-10T03:02:40.363Z,100943.78
2022-09-10T03:05:08.694Z,100949.72
2022-09-10T03:07:36.002Z,100946.56
2022-09-10T03:10:03.938Z,100947.13
2022-09-10T03:12:31.473Z,100939.66
2022-09-10T03:14:59.073Z,100939.19
2022-09-10T03:17:26.458Z,100942.44
2022-09-10T03:19:55.079Z,100950.25
2022-09-10T03:22:22.420Z,100939.84
2022-09-10T03:24:50.028Z,100942.88
2022-09-10T03:27:18.160Z,100943.75
2022-09-10T03:29:45.432Z,100943.28
2022-09-10T03:32:12.707Z,100940.13
2022-09-10T03:34:39.970Z,100945.56
2022-09-10T03:37:08.587Z,100945.88
2022-09-10T03:39:35.989Z,100946.78
2022-09-10T03:42:05.134Z,100952.72
2022-09-10T03:44:33.608Z,100950.59
2022-09-10T03:47:00.994Z,100956.78
2022-09-10T03:49:28.853Z,100955.16
2022-09-10T03:51:56.185Z,100950.59
2022-09-10T03:54:24.877Z,100953.84
2022-09-10T03:56:52.110Z,100949.69
2022-09-10T03:59:19.499Z,100953.75
2022-09-10T04:01:47.252Z,100957.22
2022-09-10T04:04:15.042Z,100948.50
2022-09-10T04:06:43.307Z,100949.66
2022-09-10T04:09:11.362Z,100951.41
2022-09-10T04:11:40.162Z,100955.63
2022-09-10T04:14:07.849Z,100954.00
2022-09-10T04:16:35.918Z,100959.59
2022-09-10T04:19:03.334Z,100957.72
2022-09-10T04:21:31.539Z,100968.22
2022-09-10T04:24:02.048Z,100956.13
2022-09-10T04:26:29.329Z,100955.78
2022-09-10T04:28:57.978Z,100964.63
2022-09-10T04:31:25.297Z,100959.84
2022-09-10T04:33:53.671Z,100965.19
2022-09-10T04:36:20.990Z,100969.66
2022-09-10T04:38:48.369Z,100970.03
2022-09-10T04:41:15.736Z,100969.63
2022-09-10T04:43:43.599Z,100969.44
2022-09-10T04:46:12.602Z,100969.78
2022-09-10T04:51:16.007Z,100974.47
2022-09-10T04:53:44.390Z,100975.75
2022-09-10T04:56:12.023Z,100972.88
2022-09-10T04:58:39.971Z,100983.06
2022-09-10T05:01:07.704Z,100978.91
2022-09-10T05:03:36.669Z,100981.88
2022-09-10T05:06:05.170Z,100983.03
2022-09-10T05:08:32.974Z,100978.59
2022-09-10T05:11:02.697Z,100979.28
2022-09-10T05:13:31.073Z,100976.22
2022-09-10T05:16:01.632Z,100972.00
2022-09-10T05:18:28.933Z,100975.59
2022-09-10T05:20:57.675Z,100977.44
2022-09-10T05:23:25.613Z,100986.53
2022-09-10T05:25:52.861Z,100989.72
2022-09-10T05:28:21.939Z,100985.13
2022-09-10T05:30:51.735Z,100985.13
2022-09-10T05:33:19.335Z,100983.28
2022-09-10T05:35:51.598Z,100983.38
2022-09-10T05:38:20.750Z,100982.44
2022-09-10T05:40:48.621Z,100986.34
2022-09-10T05:43:15.898Z,100984.31
2022-09-10T05:45:43.218Z,100980.00
2022-09-10T05:48:10.501Z,100992.34
2022-09-10T05:50:38.538Z,100985.28
2022-09-10T05:53:06.088Z,100999.97
2022-09-10T05:55:34.838Z,100986.16
2022-09-10T05:58:02.944Z,101005.78
2022-09-10T06:00:30.531Z,100996.50
2022-09-10T06:02:58.030Z,100998.59
2022-09-10T06:05:25.646Z,101001.88
2022-09-10T06:07:52.977Z,100998.13
2022-09-10T06:10:20.268Z,101003.31
2022-09-10T06:12:51.955Z,100995.63
2022-09-10T06:15:21.142Z,100995.84
2022-09-10T06:17:48.601Z,100995.53
2022-09-10T06:20:16.124Z,101001.94
2022-09-10T06:22:43.383Z,101000.91
2022-09-10T06:25:10.727Z,101000.44
2022-09-10T06:27:38.259Z,101001.56
2022-09-10T06:30:08.290Z,101004.34
2022-09-10T06:32:35.584Z,101003.88
2022-09-10T06:35:02.817Z,101008.41
2022-09-10T06:37:35.285Z,101002.56
2022-09-10T06:40:03.592Z,101012.78
2022-09-10T06:42:32.175Z,101008.50
2022-09-10T06:45:00.317Z,101013.88
2022-09-10T06:50:16.473Z,101015.56
2022-09-10T06:52:43.777Z,101012.97
2022-09-10T06:55:11.015Z,101020.88
2022-09-10T06:57:38.330Z,101027.47
2022-09-10T07:00:07.293Z,101028.88
2022-09-10T07:02:35.910Z,101019.22
2022-09-10T07:05:03.347Z,101029.47
2022-09-10T07:07:31.357Z,101036.13
2022-09-10T07:09:58.589Z,101036.91
2022-09-10T07:12:26.014Z,101036.19
2022-09-10T07:14:53.650Z,101037.91
2022-09-10T07:17:21.058Z,101039.69
2022-09-10T07:19:49.629Z,101037.75
2022-09-10T07:22:17.161Z,101044.75
2022-09-10T07:24:45.343Z,101043.47
2022-09-10T07:27:13.095Z,101047.53
2022-09-10T07:29:40.360Z,101046.22
2022-09-10T07:32:10.577Z,101045.22
2022-09-10T07:34:40.570Z,101046.22
2022-09-10T07:37:09.243Z,101060.38
2022-09-10T07:39:36.541Z,101054.03
2022-09-10T07:42:04.253Z,101059.22
2022-09-10T07:44:31.507Z,101060.03
2022-09-10T07:46:59.182Z,101060.03
2022-09-10T07:49:27.831Z,101066.44
2022-09-10T07:51:59.669Z,101062.16
2022-09-10T07:54:28.709Z,101065.97
2022-09-10T07:56:56.044Z,101070.59
2022-09-10T07:59:23.277Z,101075.28
2022-09-10T08:01:50.719Z,101072.13
2022-09-10T08:04:19.137Z,101075.63
2022-09-10T08:06:46.658Z,101074.31
2022-09-10T08:09:14.889Z,101078.13
2022-09-10T08:11:43.483Z,101075.09
2022-09-10T08:14:13.287Z,101079.91
2022-09-10T08:16:44.282Z,101078.59
2022-09-10T08:19:13.871Z,101081.63
2022-09-10T08:21:41.203Z,101091.34
2022-09-10T08:24:10.951Z,101096.53
2022-09-10T08:26:38.204Z,101096.06
2022-09-10T08:29:07.115Z,101094.25
2022-09-10T08:31:34.720Z,101096.13
2022-09-10T08:34:01.970Z,101102.31
2022-09-10T08:36:29.276Z,101108.00
2022-09-10T08:39:01.399Z,101105.97
2022-09-10T08:41:52.745Z,101105.47
2022-09-10T08:44:43.081Z,101106.59
2022-09-10T08:47:29.614Z,101108.03
2022-09-10T08:50:04.149Z,101116.97
2022-09-10T08:52:41.374Z,101114.28
2022-09-10T08:55:25.663Z,101121.84
2022-09-10T08:57:59.364Z,101121.97
2022-09-10T09:00:34.150Z,101118.41
2022-09-10T09:03:13.090Z,101119.72
2022-09-10T09:05:46.480Z,101121.31
2022-09-10T09:08:19.665Z,101122.22
2022-09-10T09:10:50.598Z,101123.81
2022-09-10T09:14:02.940Z,101121.44
2022-09-10T09:16:59.666Z,101119.16
2022-09-10T09:19:34.694Z,101125.78
2022-09-10T09:22:17.224Z,101121.56
2022-09-10T09:24:54.859Z,101125.41
2022-09-10T09:27:22.215Z,101129.22
2022-09-10T09:29:57.225Z,101127.06
2022-09-10T09:32:28.704Z,101131.09
2022-09-10T09:35:09.959Z,101132.63
2022-09-10T09:37:41.549Z,101130.38
2022-09-10T09:40:21.178Z,101136.13
2022-09-10T09:42:58.144Z,101128.25
2022-09-10T09:45:37.221Z,101142.81
2022-09-10T09:48:11.937Z,101141.66
2022-09-10T09:50:43.836Z,101136.28
2022-09-10T09:53:20.421Z,101136.69
2022-09-10T09:55:53.627Z,101138.66
2022-09-10T09:58:31.082Z,101139.09
2022-09-10T10:01:20.108Z,101132.81
2022-09-10T10:03:54.090Z,101135.81
2022-09-10T10:06:25.133Z,101138.56
2022-09-10T10:09:00.144Z,101133.00
2022-09-10T10:11:51.811Z,101133.88
2022-09-10T10:14:39.425Z,101135.63
2022-09-10T10:17:38.486Z,101131.63
2022-09-10T10:20:16.613Z,101132.09
2022-09-10T10:22:45.803Z,101126.38
2022-09-10T10:25:45.493Z,101128.66
2022-09-10T10:28:20.917Z,101128.22
2022-09-10T10:30:53.518Z,101129.13
2022-09-10T10:33:28.306Z,101122.97
2022-09-10T10:36:10.766Z,101126.50
2022-09-10T10:38:41.895Z,101138.63
2022-09-10T10:41:45.327Z,101130.53
2022-09-10T10:44:48.000Z,101131.13
2022-09-10T10:47:34.169Z,101131.69
2022-09-10T10:50:18.382Z,101134.66
2022-09-10T10:53:15.593Z,101133.34
2022-09-10T10:55:55.357Z,101135.84
2022-09-10T10:58:41.506Z,101130.75
2022-09-10T11:01:21.381Z,101132.91
2022-09-10T11:04:01.645Z,101120.47
2022-09-10T11:06:40.533Z,101122.59
2022-09-10T11:09:22.831Z,101126.00
2022-09-10T11:11:57.817Z,101122.25
2022-09-10T11:14:38.218Z,101114.41
2022-09-10T11:17:16.196Z,101114.34
2022-09-10T11:20:26.696Z,101116.97
2022-09-10T11:22:54.024Z,101115.97
2022-09-10T11:25:30.661Z,101116.03
2022-09-10T11:28:11.378Z,101118.81
2022-09-10T11:30:45.247Z,101114.09
2022-09-10T11:33:23.418Z,101114.63
2022-09-10T11:36:01.669Z,101116.75
2022-09-10T11:38:44.189Z,101105.31
2022-09-10T11:41:19.634Z,101111.41
2022-09-10T11:44:01.344Z,101108.19
2022-09-10T11:46:37.809Z,101106.84
2022-09-10T11:49:16.138Z,101106.66
2022-09-10T11:51:45.726Z,101112.50
2022-09-10T11:54:17.476Z,101100.72
2022-09-10T11:57:01.348Z,101106.09
2022-09-10T12:00:12.505Z,101095.94
2022-09-10T12:03:40.916Z,101096.50
2022-09-10T12:06:22.303Z,101105.47
2022-09-10T12:09:08.455Z,101100.50
2022-09-10T12:11:47.418Z,101090.53
2022-09-10T12:14:19.601Z,101093.81
2022-09-10T12:16:53.956Z,101094.63
2022-09-10T12:19:29.234Z,101096.66
2022-09-10T12:22:01.831Z,101087.63
2022-09-10T12:24:33.484Z,101088.28
2022-09-10T12:27:03.958Z,101099.97
2022-09-10T12:29:35.671Z,101097.59
2022-09-10T12:32:36.185Z,101099.38
2022-09-10T12:35:44.856Z,101108.97
2022-09-10T12:38:55.613Z,101102.34
2022-09-10T12:42:02.193Z,101101.88
2022-09-10T12:44:47.525Z,101098.09
2022-09-10T12:47:56.360Z,101108.06
2022-09-10T12:50:45.956Z,101102.09
2022-09-10T12:53:54.525Z,101098.09
2022-09-10T12:57:12.741Z,101098.88
2022-09-10T13:00:22.188Z,101087.25
2022-09-10T13:02:58.746Z,101090.47
2022-09-10T13:05:38.399Z,101095.84
2022-09-10T13:08:20.483Z,101095.47
2022-09-10T13:11:13.285Z,101100.50
2022-09-10T13:13:46.430Z,101094.94
2022-09-10T13:16:19.072Z,101093.72
2022-09-10T13:18:48.384Z,101089.53
2022-09-10T13:21:54.809Z,101093.47
2022-09-10T13:24:59.793Z,101096.06
2022-09-10T13:27:38.909Z,101088.59
2022-09-10T13:30:18.893Z,101088.75
2022-09-10T13:32:53.238Z,101087.34
2022-09-10T13:36:05.518Z,101086.09
2022-09-10T13:39:20.150Z,101092.09
2022-09-10T13:42:11.774Z,101093.25
2022-09-10T13:45:00.454Z,101085.16
2022-09-10T13:47:35.787Z,101091.19
2022-09-10T13:50:14.504Z,101087.72
2022-09-10T13:52:46.981Z,101098.28
2022-09-10T13:55:20.636Z,101093.47
2022-09-10T13:57:51.863Z,101103.19
2022-09-10T14:00:24.033Z,101091.31
2022-09-10T14:02:54.272Z,101097.03
2022-09-10T14:05:46.876Z,101093.06
2022-09-10T14:08:21.659Z,101095.00
2022-09-10T14:10:55.814Z,101104.53
2022-09-10T14:13:32.007Z,101102.47
2022-09-10T14:16:02.548Z,101110.63
2022-09-10T14:18:42.866Z,101104.72
2022-09-10T14:21:14.573Z,101112.06
2022-09-10T14:23:47.528Z,101108.34
2022-09-10T14:26:23.587Z,101105.44
2022-09-10T14:28:58.804Z,101107.66
2022-09-10T14:31:36.309Z,101109.88
2022-09-10T14:34:32.125Z,101111.31
2022-09-10T14:37:28.503Z,101114.34
2022-09-10T14:39:56.714Z,101112.97
2022-09-10T14:42:31.295Z,101113.78
2022-09-10T14:44:58.557Z,101113.78
2022-09-10T14:47:32.433Z,101114.88
2022-09-10T14:50:31.109Z,101113.31
2022-09-10T14:52:59.929Z,101117.09
2022-09-10T14:55:32.263Z,101118.19
2022-09-10T14:57:59.769Z,101120.91
2022-09-10T15:00:28.222Z,101117.38
2022-09-10T15:02:57.286Z,101121.44
2022-09-10T15:05:24.741Z,101118.72
2022-09-10T15:07:52.008Z,101120.31
2022-09-10T15:10:21.062Z,101130.59
2022-09-10T15:12:52.014Z,101128.44
2022-09-10T15:15:19.526Z,101134.66
2022-09-10T15:17:46.846Z,101128.44
2022-09-10T15:20:15.117Z,101133.06
2022-09-10T15:22:43.279Z,101134.41
2022-09-10T15:25:37.947Z,101130.13
2022-09-10T15:28:07.459Z,101140.69
2022-09-10T15:30:36.000Z,101139.88
2022-09-10T15:33:04.139Z,101140.97
2022-09-10T15:35:31.398Z,101147.44
2022-09-10T15:38:01.438Z,101139.84
2022-09-10T15:40:30.096Z,101145.28
2022-09-10T15:42:57.847Z,101140.44
2022-09-10T15:45:25.237Z,101140.44
2022-09-10T15:47:52.557Z,101143.69
2022-09-10T15:50:19.890Z,101142.09
2022-09-10T15:52:47.437Z,101129.66
2022-09-10T15:55:14.995Z,101129.66
2022-09-10T15:57:43.587Z,101126.94
2022-09-10T16:00:13.250Z,101127.78
2022-09-10T16:02:42.130Z,101124.50
2022-09-10T16:05:09.944Z,101129.09
2022-09-10T16:07:37.238Z,101129.91
2022-09-10T16:10:06.279Z,101137.72
2022-09-10T16:12:33.770Z,101146.13
2022-09-10T16:15:02.749Z,101138.81
2022-09-10T16:17:31.745Z,101138.00
2022-09-10T16:20:00.187Z,101144.22
2022-09-10T16:22:28.190Z,101155.03
2022-09-10T16:24:55.422Z,101148.56
2022-09-10T16:27:22.837Z,101142.31
2022-09-10T16:29:50.302Z,101147.47
2022-09-10T16:32:18.937Z,101156.38
2022-09-10T16:34:46.287Z,101162.03
2022-09-10T16:37:14.166Z,101165.00
2022-09-10T16:39:41.504Z,101170.94
2022-09-10T16:42:09.711Z,101170.94
2022-09-10T16:44:36.957Z,101170.41
2022-09-10T16:47:04.507Z,101170.41
2022-09-10T16:49:33.176Z,101175.81
2022-09-10T16:52:00.553Z,101179.34
2022-09-10T16:54:29.050Z,101178.81
2022-09-10T16:56:56.360Z,101196.06
2022-09-10T16:59:26.134Z,101192.00
2022-09-10T17:01:53.911Z,101188.22
2022-09-10T17:04:28.236Z,101185.25
2022-09-10T17:06:57.974Z,101188.47
2022-09-10T17:09:25.937Z,101186.25
2022-09-10T17:11:53.426Z,101192.16
2022-09-10T17:14:21.214Z,101193.75
2022-09-10T17:16:48.669Z,101197.25
2022-09-10T17:19:18.578Z,101191.84
2022-09-10T17:21:51.041Z,101199.13
2022-09-10T17:24:22.811Z,101206.63
2022-09-10T17:26:51.769Z,101208.50
2022-09-10T17:29:22.264Z,101211.97
2022-09-10T17:31:55.325Z,101217.88
2022-09-10T17:34:24.543Z,101227.31
2022-09-10T17:36:52.356Z,101224.88
2022-09-10T17:39:21.063Z,101226.50
2022-09-10T17:41:48.504Z,101231.59
2022-09-10T17:44:16.626Z,101232.13
2022-09-10T17:46:45.020Z,101233.69
2022-09-10T17:49:14.213Z,101232.31
2022-09-10T17:51:43.121Z,101232.56
2022-09-10T17:54:11.864Z,101226.09
2022-09-10T17:56:41.865Z,101242.78
2022-09-10T17:59:16.042Z,101240.84
2022-09-10T18:01:43.405Z,101243.81
2022-09-10T18:04:15.677Z,101243.00
2022-09-10T18:06:46.803Z,101250.53
2022-09-10T18:09:16.727Z,101249.44
2022-09-10T18:11:45.434Z,101253.19
2022-09-10T18:14:19.682Z,101256.38
2022-09-10T18:16:47.420Z,101259.63
2022-09-10T18:19:16.933Z,101260.13
2022-09-10T18:21:46.291Z,101266.84
2022-09-10T18:24:16.874Z,101278.13
2022-09-10T18:26:49.045Z,101274.59
2022-09-10T18:29:19.615Z,101280.00
2022-09-10T18:31:49.464Z,101283.19
2022-09-10T18:34:23.537Z,101285.88
2022-09-10T18:36:57.529Z,101287.19
2022-09-10T18:39:27.272Z,101281.50
2022-09-10T18:41:57.539Z,101294.13
2022-09-10T18:44:27.472Z,101294.91
2022-09-10T18:46:56.026Z,101292.66
2022-09-10T18:49:25.273Z,101293.66
2022-09-10T18:51:55.164Z,101296.34
2022-09-10T18:54:24.584Z,101309.19
2022-09-10T18:56:53.323Z,101297.53
2022-09-10T18:59:24.497Z,101309.06
2022-09-10T19:01:53.995Z,101306.88
2022-09-10T19:04:25.310Z,101306.31
2022-09-10T19:06:54.217Z,101315.44
2022-09-10T19:09:24.115Z,101316.19
2022-09-10T19:11:54.147Z,101326.66
2022-09-10T19:14:26.330Z,101326.03
2022-09-10T19:16:56.255Z,101329.50
2022-09-10T19:19:26.423Z,101336.66
2022-09-10T19:21:57.155Z,101339.28
2022-09-10T19:24:37.763Z,101334.41
2022-09-10T19:27:11.643Z,101335.94
2022-09-10T19:29:43.010Z,101334.28
2022-09-10T19:32:11.314Z,101342.06
2022-09-10T19:34:38.928Z,101336.34
2022-09-10T19:37:07.093Z,101344.41
2022-09-10T19:39:34.388Z,101353.56
2022-09-10T19:42:01.785Z,101344.38
2022-09-10T19:44:29.121Z,101346.47
2022-09-10T19:46:58.688Z,101345.09
2022-09-10T19:49:26.011Z,101351.56
2022-09-10T19:51:54.020Z,101355.53
2022-09-10T19:54:22.728Z,101355.81
2022-09-10T19:56:50.077Z,101368.66
2022-09-10T19:59:17.587Z,101375.94
2022-09-10T20:01:46.090Z,101371.03
2022-09-10T20:04:15.079Z,101374.22
2022-09-10T20:06:43.431Z,101374.69
2022-09-10T20:09:10.781Z,101375.69
2022-09-10T20:11:38.887Z,101380.41
2022-09-10T20:14:10.095Z,101378.13
2022-09-10T20:16:38.933Z,101384.47
2022-09-10T20:19:07.094Z,101383.56
2022-09-10T20:21:37.060Z,101388.03
2022-09-10T20:24:07.746Z,101391.66
2022-09-10T20:26:46.290Z,101394.25
2022-09-10T20:29:15.870Z,101389.88
2022-09-10T20:31:44.636Z,101393.03
2022-09-10T20:34:14.399Z,101390.81
2022-09-10T20:36:43.672Z,101390.72
2022-09-10T20:39:14.416Z,101385.28
2022-09-10T20:41:41.963Z,101379.31
2022-09-10T20:44:13.670Z,101385.50
2022-09-10T20:46:41.725Z,101381.78
2022-09-10T20:49:11.549Z,101376.16
2022-09-10T20:51:40.457Z,101381.88
2022-09-10T20:54:14.054Z,101381.63
2022-09-10T20:56:42.219Z,101382.09
2022-09-10T20:59:12.172Z,101389.56
2022-09-10T21:01:39.521Z,101387.97
2022-09-10T21:04:06.936Z,101392.25
2022-09-10T21:06:35.226Z,101392.84
2022-09-10T21:09:04.026Z,101391.88
2022-09-10T21:11:36.302Z,101387.34
2022-09-10T21:14:07.341Z,101389.78
2022-09-10T21:16:37.082Z,101388.94
2022-09-10T21:19:09.908Z,101387.81
2022-09-10T21:21:41.716Z,101383.38
2022-09-10T21:24:12.452Z,101385.97
2022-09-10T21:26:45.905Z,101384.00
2022-09-10T21:29:15.653Z,101382.88
2022-09-10T21:31:43.800Z,101390.59
2022-09-10T21:34:11.703Z,101384.31
2022-09-10T21:36:41.241Z,101384.78
2022-09-10T21:39:14.337Z,101395.97
2022-09-10T21:41:45.827Z,101397.06
2022-09-10T21:44:16.198Z,101403.47
2022-09-10T21:46:45.159Z,101403.47
2022-09-10T21:49:13.027Z,101402.88
2022-09-10T21:51:41.247Z,101403.97
2022-09-10T21:54:14.607Z,101393.69
2022-09-10T21:56:43.350Z,101399.88
2022-09-10T21:59:12.561Z,101407.69
2022-09-10T22:01:43.652Z,101406.97
2022-09-10T22:04:12.412Z,101413.72
2022-09-10T22:06:39.959Z,101408.00
2022-09-10T22:09:10.019Z,101413.06
2022-09-10T22:11:41.766Z,101417.25
2022-09-10T22:14:14.857Z,101416.06
2022-09-10T22:16:42.973Z,101421.44
2022-09-10T22:19:15.547Z,101430.53
2022-09-10T22:21:42.907Z,101437.53
2022-09-10T22:24:13.080Z,101425.19
2022-09-10T22:26:43.241Z,101426.78
2022-09-10T22:29:15.358Z,101424.69
2022-09-10T22:31:42.814Z,101428.44
2022-09-10T22:34:13.706Z,101431.38
2022-09-10T22:36:44.043Z,101436.38
2022-09-10T22:39:14.169Z,101438.94
2022-09-10T22:41:41.889Z,101444.44
2022-09-10T22:44:11.197Z,101448.06
2022-09-10T22:46:40.034Z,101443.63
2022-09-10T22:49:08.517Z,101454.63
2022-09-10T22:51:40.831Z,101449.72
2022-09-10T22:54:10.649Z,101452.84
2022-09-10T22:56:38.377Z,101451.69
2022-09-10T22:59:06.958Z,101455.66
2022-09-10T23:01:38.350Z,101463.13
2022-09-10T23:04:08.007Z,101455.28
2022-09-10T23:06:38.613Z,101462.19
2022-09-10T23:09:10.635Z,101468.81
2022-09-10T23:11:39.120Z,101467.41
2022-09-10T23:14:11.083Z,101474.88
2022-09-10T23:16:42.348Z,101483.75
2022-09-10T23:19:14.033Z,101488.53
2022-09-10T23:21:44.174Z,101487.69
2022-09-10T23:24:14.405Z,101493.31
2022-09-10T23:26:43.035Z,101484.88
2022-09-10T23:29:11.071Z,101493.97
2022-09-10T23:31:40.959Z,101497.13
2022-09-10T23:34:12.463Z,101487.44
2022-09-10T23:36:58.303Z,101494.91
2022-09-10T23:39:25.592Z,101493.88
2022-09-10T23:41:56.766Z,101502.13
2022-09-10T23:44:24.601Z,101509.34
2022-09-10T23:46:53.594Z,101502.78
2022-09-10T23:49:21.382Z,101512.34
2022-09-10T23:51:49.110Z,101506.16
2022-09-10T23:54:17.114Z,101512.34
2022-09-10T23:56:44.702Z,101515.59
2022-09-10T23:59:12.467Z,101510.00
